sensor_id;sensor_type;location;lat;lon;timestamp;P1;durP1;ratioP1;P2;durP2;ratioP2
61673;SDS011;47573;43.832;5.974;2023-02-08T00:03:06;362.25;;;211.20;;
61673;SDS011;47573;43.832;5.974;2023-02-08T00:09:48;350.57;;;201.10;;
61673;SDS011;47573;43.832;5.974;2023-02-08T00:16:28;334.27;;;190.65;;
61673;SDS011;47573;43.832;5.974;2023-02-08T00:23:09;336.35;;;185.80;;
61673;SDS011;47573;43.832;5.974;2023-02-08T00:29:52;332.60;;;187.02;;
61673;SDS011;47573;43.832;5.974;2023-02-08T00:36:32;327.23;;;181.85;;
61673;SDS011;47573;43.832;5.974;2023-02-08T00:43:13;313.73;;;174.07;;
61673;SDS011;47573;43.832;5.974;2023-02-08T00:49:54;304.27;;;165.43;;
61673;SDS011;47573;43.832;5.974;2023-02-08T00:56:35;312.42;;;167.68;;
61673;SDS011;47573;43.832;5.974;2023-02-08T01:03:16;285.52;;;155.45;;
61673;SDS011;47573;43.832;5.974;2023-02-08T01:09:57;276.47;;;149.40;;
61673;SDS011;47573;43.832;5.974;2023-02-08T01:16:38;281.20;;;147.23;;
61673;SDS011;47573;43.832;5.974;2023-02-08T01:23:19;271.58;;;142.48;;
61673;SDS011;47573;43.832;5.974;2023-02-08T01:30:01;292.98;;;152.25;;
61673;SDS011;47573;43.832;5.974;2023-02-08T01:36:41;324.77;;;174.30;;
61673;SDS011;47573;43.832;5.974;2023-02-08T01:43:23;331.23;;;181.73;;
61673;SDS011;47573;43.832;5.974;2023-02-08T01:50:06;362.85;;;194.52;;
61673;SDS011;47573;43.832;5.974;2023-02-08T01:56:48;359.92;;;203.23;;
61673;SDS011;47573;43.832;5.974;2023-02-08T02:03:29;368.77;;;204.93;;
61673;SDS011;47573;43.832;5.974;2023-02-08T02:10:13;369.80;;;208.55;;
61673;SDS011;47573;43.832;5.974;2023-02-08T02:16:58;377.52;;;213.35;;
61673;SDS011;47573;43.832;5.974;2023-02-08T02:23:51;390.98;;;219.27;;
61673;SDS011;47573;43.832;5.974;2023-02-08T02:30:58;386.65;;;223.82;;
61673;SDS011;47573;43.832;5.974;2023-02-08T02:37:58;446.23;;;255.73;;
61673;SDS011;47573;43.832;5.974;2023-02-08T02:44:51;444.02;;;253.70;;
61673;SDS011;47573;43.832;5.974;2023-02-08T02:51:37;420.67;;;239.30;;
61673;SDS011;47573;43.832;5.974;2023-02-08T02:58:23;401.17;;;227.35;;
61673;SDS011;47573;43.832;5.974;2023-02-08T03:05:06;391.58;;;227.95;;
61673;SDS011;47573;43.832;5.974;2023-02-08T03:11:51;381.88;;;215.40;;
61673;SDS011;47573;43.832;5.974;2023-02-08T03:18:40;366.73;;;209.07;;
61673;SDS011;47573;43.832;5.974;2023-02-08T03:25:32;346.10;;;194.93;;
61673;SDS011;47573;43.832;5.974;2023-02-08T03:32:16;340.17;;;190.85;;
61673;SDS011;47573;43.832;5.974;2023-02-08T03:39:03;330.58;;;181.93;;
61673;SDS011;47573;43.832;5.974;2023-02-08T03:45:48;323.73;;;175.48;;
61673;SDS011;47573;43.832;5.974;2023-02-08T03:52:31;309.25;;;167.63;;
61673;SDS011;47573;43.832;5.974;2023-02-08T03:59:16;299.25;;;159.35;;
61673;SDS011;47573;43.832;5.974;2023-02-08T04:06:00;294.00;;;156.73;;
61673;SDS011;47573;43.832;5.974;2023-02-08T04:12:41;286.35;;;152.90;;
61673;SDS011;47573;43.832;5.974;2023-02-08T04:19:23;282.83;;;149.43;;
61673;SDS011;47573;43.832;5.974;2023-02-08T04:26:04;276.58;;;146.95;;
61673;SDS011;47573;43.832;5.974;2023-02-08T04:32:44;259.60;;;140.25;;
61673;SDS011;47573;43.832;5.974;2023-02-08T04:39:26;260.58;;;135.30;;
61673;SDS011;47573;43.832;5.974;2023-02-08T04:46:07;253.55;;;135.32;;
61673;SDS011;47573;43.832;5.974;2023-02-08T04:52:47;243.00;;;130.02;;
61673;SDS011;47573;43.832;5.974;2023-02-08T04:59:29;245.70;;;128.23;;
61673;SDS011;47573;43.832;5.974;2023-02-08T05:06:10;235.77;;;124.20;;
61673;SDS011;47573;43.832;5.974;2023-02-08T05:12:50;224.77;;;118.93;;
61673;SDS011;47573;43.832;5.974;2023-02-08T05:19:32;219.73;;;113.32;;
61673;SDS011;47573;43.832;5.974;2023-02-08T05:26:13;213.98;;;112.28;;
61673;SDS011;47573;43.832;5.974;2023-02-08T05:32:53;201.43;;;105.43;;
61673;SDS011;47573;43.832;5.974;2023-02-08T05:39:35;201.03;;;102.60;;
61673;SDS011;47573;43.832;5.974;2023-02-08T05:46:15;190.13;;;100.35;;
61673;SDS011;47573;43.832;5.974;2023-02-08T05:52:56;187.25;;;98.32;;
61673;SDS011;47573;43.832;5.974;2023-02-08T05:59:38;181.30;;;94.53;;
61673;SDS011;47573;43.832;5.974;2023-02-08T06:06:18;171.82;;;89.75;;
61673;SDS011;47573;43.832;5.974;2023-02-08T06:12:59;165.65;;;85.18;;
61673;SDS011;47573;43.832;5.974;2023-02-08T06:19:41;158.77;;;82.75;;
61673;SDS011;47573;43.832;5.974;2023-02-08T06:26:21;155.70;;;81.70;;
61673;SDS011;47573;43.832;5.974;2023-02-08T06:33:02;149.63;;;77.88;;
61673;SDS011;47573;43.832;5.974;2023-02-08T06:39:44;152.50;;;77.50;;
61673;SDS011;47573;43.832;5.974;2023-02-08T06:46:24;145.10;;;74.30;;
61673;SDS011;47573;43.832;5.974;2023-02-08T06:53:05;134.50;;;68.17;;
61673;SDS011;47573;43.832;5.974;2023-02-08T06:59:47;127.93;;;65.60;;
61673;SDS011;47573;43.832;5.974;2023-02-08T07:06:27;134.63;;;66.13;;
61673;SDS011;47573;43.832;5.974;2023-02-08T07:13:08;127.43;;;63.95;;
61673;SDS011;47573;43.832;5.974;2023-02-08T07:19:50;122.27;;;62.03;;
61673;SDS011;47573;43.832;5.974;2023-02-08T07:26:30;113.80;;;57.83;;
61673;SDS011;47573;43.832;5.974;2023-02-08T07:33:11;116.22;;;58.88;;
61673;SDS011;47573;43.832;5.974;2023-02-08T07:39:53;109.35;;;56.00;;
61673;SDS011;47573;43.832;5.974;2023-02-08T07:46:33;110.43;;;55.50;;
61673;SDS011;47573;43.832;5.974;2023-02-08T07:53:14;105.23;;;53.63;;
61673;SDS011;47573;43.832;5.974;2023-02-08T07:59:55;93.20;;;49.20;;
61673;SDS011;47573;43.832;5.974;2023-02-08T08:06:36;75.38;;;34.22;;
61673;SDS011;47573;43.832;5.974;2023-02-08T08:13:16;66.80;;;29.50;;
61673;SDS011;47573;43.832;5.974;2023-02-08T08:19:58;459.13;;;121.70;;
61673;SDS011;47573;43.832;5.974;2023-02-08T08:26:39;415.80;;;107.32;;
61673;SDS011;47573;43.832;5.974;2023-02-08T08:33:19;438.60;;;117.77;;
61673;SDS011;47573;43.832;5.974;2023-02-08T08:40:01;447.63;;;117.17;;
61673;SDS011;47573;43.832;5.974;2023-02-08T08:46:42;121.07;;;33.00;;
61673;SDS011;47573;43.832;5.974;2023-02-08T08:53:23;215.20;;;47.83;;
61673;SDS011;47573;43.832;5.974;2023-02-08T09:00:05;110.55;;;30.60;;
61673;SDS011;47573;43.832;5.974;2023-02-08T09:06:46;47.67;;;21.30;;
61673;SDS011;47573;43.832;5.974;2023-02-08T09:13:26;365.67;;;98.23;;
61673;SDS011;47573;43.832;5.974;2023-02-08T09:20:09;65.60;;;24.53;;
61673;SDS011;47573;43.832;5.974;2023-02-08T09:26:50;53.37;;;23.33;;
61673;SDS011;47573;43.832;5.974;2023-02-08T09:33:30;139.50;;;37.13;;
61673;SDS011;47573;43.832;5.974;2023-02-08T09:40:18;645.95;;;179.23;;
61673;SDS011;47573;43.832;5.974;2023-02-08T09:47:02;58.33;;;22.98;;
61673;SDS011;47573;43.832;5.974;2023-02-08T09:53:50;178.88;;;49.15;;
61673;SDS011;47573;43.832;5.974;2023-02-08T10:00:38;55.05;;;23.50;;
61673;SDS011;47573;43.832;5.974;2023-02-08T10:07:22;374.67;;;98.80;;
61673;SDS011;47573;43.832;5.974;2023-02-08T10:14:11;51.25;;;21.63;;
61673;SDS011;47573;43.832;5.974;2023-02-08T10:21:06;49.97;;;22.73;;
61673;SDS011;47573;43.832;5.974;2023-02-08T10:28:06;249.10;;;59.10;;
61673;SDS011;47573;43.832;5.974;2023-02-08T10:35:03;42.30;;;22.63;;
61673;SDS011;47573;43.832;5.974;2023-02-08T10:41:51;39.95;;;23.40;;
61673;SDS011;47573;43.832;5.974;2023-02-08T10:48:34;39.25;;;24.25;;
61673;SDS011;47573;43.832;5.974;2023-02-08T10:55:25;836.75;;;368.90;;
61673;SDS011;47573;43.832;5.974;2023-02-08T11:02:10;52.20;;;28.17;;
61673;SDS011;47573;43.832;5.974;2023-02-08T11:09:01;43.45;;;26.48;;
61673;SDS011;47573;43.832;5.974;2023-02-08T11:15:43;41.03;;;26.15;;
61673;SDS011;47573;43.832;5.974;2023-02-08T11:22:27;42.55;;;26.55;;
61673;SDS011;47573;43.832;5.974;2023-02-08T11:29:11;44.28;;;27.23;;
61673;SDS011;47573;43.832;5.974;2023-02-08T11:35:54;43.47;;;26.30;;
61673;SDS011;47573;43.832;5.974;2023-02-08T11:42:41;47.88;;;28.02;;
61673;SDS011;47573;43.832;5.974;2023-02-08T11:49:23;55.50;;;29.98;;
61673;SDS011;47573;43.832;5.974;2023-02-08T11:56:13;57.42;;;29.95;;
61673;SDS011;47573;43.832;5.974;2023-02-08T12:02:57;74.00;;;34.85;;
61673;SDS011;47573;43.832;5.974;2023-02-08T12:17:02;68.57;;;35.88;;
61673;SDS011;47573;43.832;5.974;2023-02-08T12:23:59;60.95;;;33.35;;
61673;SDS011;47573;43.832;5.974;2023-02-08T12:30:46;46.55;;;28.80;;
61673;SDS011;47573;43.832;5.974;2023-02-08T12:37:33;46.28;;;29.30;;
61673;SDS011;47573;43.832;5.974;2023-02-08T12:44:26;46.10;;;28.35;;
61673;SDS011;47573;43.832;5.974;2023-02-08T12:51:18;50.28;;;30.55;;
61673;SDS011;47573;43.832;5.974;2023-02-08T12:58:13;47.45;;;29.10;;
61673;SDS011;47573;43.832;5.974;2023-02-08T13:05:05;47.20;;;29.20;;
61673;SDS011;47573;43.832;5.974;2023-02-08T13:11:47;54.15;;;31.30;;
61673;SDS011;47573;43.832;5.974;2023-02-08T13:18:32;51.15;;;30.60;;
61673;SDS011;47573;43.832;5.974;2023-02-08T13:25:20;47.33;;;28.73;;
61673;SDS011;47573;43.832;5.974;2023-02-08T13:32:07;43.30;;;26.65;;
61673;SDS011;47573;43.832;5.974;2023-02-08T13:38:54;41.53;;;26.23;;
61673;SDS011;47573;43.832;5.974;2023-02-08T13:45:38;42.60;;;27.42;;
61673;SDS011;47573;43.832;5.974;2023-02-08T13:59:35;42.83;;;25.67;;
61673;SDS011;47573;43.832;5.974;2023-02-08T14:06:18;41.08;;;25.60;;
61673;SDS011;47573;43.832;5.974;2023-02-08T14:13:03;38.15;;;24.45;;
61673;SDS011;47573;43.832;5.974;2023-02-08T14:19:54;38.90;;;24.77;;
61673;SDS011;47573;43.832;5.974;2023-02-08T14:26:38;38.42;;;23.83;;
61673;SDS011;47573;43.832;5.974;2023-02-08T14:33:19;64.65;;;36.90;;
61673;SDS011;47573;43.832;5.974;2023-02-08T14:54:43;97.38;;;58.33;;
61673;SDS011;47573;43.832;5.974;2023-02-08T15:01:34;100.88;;;58.88;;
61673;SDS011;47573;43.832;5.974;2023-02-08T15:08:20;97.47;;;58.42;;
61673;SDS011;47573;43.832;5.974;2023-02-08T15:15:03;97.13;;;58.00;;
61673;SDS011;47573;43.832;5.974;2023-02-08T15:21:46;192.15;;;90.88;;
61673;SDS011;47573;43.832;5.974;2023-02-08T15:28:27;96.53;;;59.20;;
61673;SDS011;47573;43.832;5.974;2023-02-08T15:35:13;119.50;;;71.07;;
61673;SDS011;47573;43.832;5.974;2023-02-08T15:41:57;165.15;;;95.50;;
61673;SDS011;47573;43.832;5.974;2023-02-08T15:48:37;183.30;;;103.60;;
61673;SDS011;47573;43.832;5.974;2023-02-08T15:55:24;205.35;;;118.05;;
61673;SDS011;47573;43.832;5.974;2023-02-08T16:02:15;227.30;;;133.48;;
61673;SDS011;47573;43.832;5.974;2023-02-08T16:09:01;254.40;;;142.52;;
61673;SDS011;47573;43.832;5.974;2023-02-08T16:15:44;290.02;;;167.77;;
61673;SDS011;47573;43.832;5.974;2023-02-08T16:22:28;322.40;;;186.30;;
61673;SDS011;47573;43.832;5.974;2023-02-08T16:29:15;350.50;;;210.43;;
61673;SDS011;47573;43.832;5.974;2023-02-08T16:35:59;357.35;;;216.93;;
61673;SDS011;47573;43.832;5.974;2023-02-08T16:42:40;377.42;;;228.80;;
61673;SDS011;47573;43.832;5.974;2023-02-08T16:49:20;407.80;;;249.40;;
61673;SDS011;47573;43.832;5.974;2023-02-08T16:56:03;443.95;;;269.05;;
61673;SDS011;47573;43.832;5.974;2023-02-08T17:02:44;462.03;;;286.40;;
61673;SDS011;47573;43.832;5.974;2023-02-08T17:09:24;477.40;;;299.38;;
61673;SDS011;47573;43.832;5.974;2023-02-08T17:16:08;510.13;;;318.75;;
61673;SDS011;47573;43.832;5.974;2023-02-08T17:22:54;508.40;;;330.50;;
61673;SDS011;47573;43.832;5.974;2023-02-08T17:29:36;547.80;;;359.60;;
61673;SDS011;47573;43.832;5.974;2023-02-08T17:36:18;573.27;;;380.17;;
61673;SDS011;47573;43.832;5.974;2023-02-08T17:42:58;571.72;;;387.92;;
61673;SDS011;47573;43.832;5.974;2023-02-08T17:49:39;595.38;;;402.80;;
61673;SDS011;47573;43.832;5.974;2023-02-08T17:56:22;602.87;;;407.47;;
61673;SDS011;47573;43.832;5.974;2023-02-08T18:03:03;596.47;;;411.98;;
61673;SDS011;47573;43.832;5.974;2023-02-08T18:09:44;752.10;;;482.80;;
61673;SDS011;47573;43.832;5.974;2023-02-08T18:16:26;634.73;;;444.23;;
61673;SDS011;47573;43.832;5.974;2023-02-08T18:23:07;648.80;;;462.17;;
61673;SDS011;47573;43.832;5.974;2023-02-08T18:29:47;649.35;;;462.42;;
61673;SDS011;47573;43.832;5.974;2023-02-08T18:36:29;631.90;;;447.57;;
61673;SDS011;47573;43.832;5.974;2023-02-08T18:43:10;628.38;;;447.08;;
61673;SDS011;47573;43.832;5.974;2023-02-08T18:49:54;621.95;;;436.83;;
61673;SDS011;47573;43.832;5.974;2023-02-08T18:56:37;634.90;;;449.05;;
61673;SDS011;47573;43.832;5.974;2023-02-08T19:03:18;635.03;;;457.77;;
61673;SDS011;47573;43.832;5.974;2023-02-08T19:09:58;653.00;;;472.25;;
61673;SDS011;47573;43.832;5.974;2023-02-08T19:16:41;670.70;;;487.73;;
61673;SDS011;47573;43.832;5.974;2023-02-08T19:23:21;654.27;;;475.03;;
61673;SDS011;47573;43.832;5.974;2023-02-08T19:30:02;658.65;;;481.00;;
61673;SDS011;47573;43.832;5.974;2023-02-08T19:36:45;671.47;;;491.50;;
61673;SDS011;47573;43.832;5.974;2023-02-08T19:43:27;660.17;;;485.98;;
61673;SDS011;47573;43.832;5.974;2023-02-08T19:50:07;643.92;;;464.13;;
61673;SDS011;47573;43.832;5.974;2023-02-08T19:56:49;635.45;;;457.85;;
61673;SDS011;47573;43.832;5.974;2023-02-08T20:03:30;618.65;;;442.70;;
61673;SDS011;47573;43.832;5.974;2023-02-08T20:10:10;612.13;;;436.10;;
61673;SDS011;47573;43.832;5.974;2023-02-08T20:16:52;629.60;;;453.60;;
61673;SDS011;47573;43.832;5.974;2023-02-08T20:23:33;644.83;;;471.15;;
61673;SDS011;47573;43.832;5.974;2023-02-08T20:30:14;663.47;;;484.35;;
61673;SDS011;47573;43.832;5.974;2023-02-08T20:36:57;661.75;;;485.13;;
61673;SDS011;47573;43.832;5.974;2023-02-08T20:43:38;666.55;;;476.35;;
61673;SDS011;47573;43.832;5.974;2023-02-08T20:50:19;651.00;;;464.40;;
61673;SDS011;47573;43.832;5.974;2023-02-08T20:57:01;634.57;;;450.80;;
61673;SDS011;47573;43.832;5.974;2023-02-08T21:03:41;620.42;;;439.52;;
61673;SDS011;47573;43.832;5.974;2023-02-08T21:10:22;578.70;;;392.52;;
61673;SDS011;47573;43.832;5.974;2023-02-08T21:17:04;1517.15;;;723.45;;
61673;SDS011;47573;43.832;5.974;2023-02-08T21:23:45;719.45;;;474.00;;
61673;SDS011;47573;43.832;5.974;2023-02-08T21:30:26;607.70;;;408.38;;
61673;SDS011;47573;43.832;5.974;2023-02-08T21:37:07;574.58;;;391.92;;
61673;SDS011;47573;43.832;5.974;2023-02-08T21:43:49;582.47;;;399.40;;
61673;SDS011;47573;43.832;5.974;2023-02-08T21:50:32;577.28;;;394.27;;
61673;SDS011;47573;43.832;5.974;2023-02-08T21:57:15;570.33;;;388.77;;
61673;SDS011;47573;43.832;5.974;2023-02-08T22:03:57;585.70;;;409.80;;
61673;SDS011;47573;43.832;5.974;2023-02-08T22:10:37;601.30;;;414.87;;
61673;SDS011;47573;43.832;5.974;2023-02-08T22:17:19;571.73;;;397.83;;
61673;SDS011;47573;43.832;5.974;2023-02-08T22:24:00;570.33;;;387.27;;
61673;SDS011;47573;43.832;5.974;2023-02-08T22:30:40;564.72;;;384.77;;
61673;SDS011;47573;43.832;5.974;2023-02-08T22:37:22;551.22;;;379.23;;
61673;SDS011;47573;43.832;5.974;2023-02-08T22:44:03;544.90;;;370.42;;
61673;SDS011;47573;43.832;5.974;2023-02-08T22:50:44;549.85;;;366.15;;
61673;SDS011;47573;43.832;5.974;2023-02-08T22:57:26;528.40;;;354.43;;
61673;SDS011;47573;43.832;5.974;2023-02-08T23:04:06;521.75;;;347.15;;
61673;SDS011;47573;43.832;5.974;2023-02-08T23:10:47;516.13;;;338.50;;
61673;SDS011;47573;43.832;5.974;2023-02-08T23:17:30;510.65;;;334.40;;
61673;SDS011;47573;43.832;5.974;2023-02-08T23:24:10;540.42;;;358.05;;
61673;SDS011;47573;43.832;5.974;2023-02-08T23:30:51;538.45;;;359.80;;
61673;SDS011;47573;43.832;5.974;2023-02-08T23:37:33;534.03;;;353.03;;
61673;SDS011;47573;43.832;5.974;2023-02-08T23:44:13;527.10;;;349.42;;
61673;SDS011;47573;43.832;5.974;2023-02-08T23:50:56;527.97;;;339.50;;
61673;SDS011;47573;43.832;5.974;2023-02-08T23:57:39;514.67;;;333.70;;
